sensor_id;sensor_type;location;lat;lon;timestamp;P1;durP1;ratioP1;P2;durP2;ratioP2
12625;SDS011;6378;42.684;23.372;2022-09-25T00:01:57;19.00;;;14.40;;
12625;SDS011;6378;42.684;23.372;2022-09-25T00:04:23;22.63;;;16.07;;
12625;SDS011;6378;42.684;23.372;2022-09-25T00:06:48;20.17;;;15.27;;
12625;SDS011;6378;42.684;23.372;2022-09-25T00:09:14;16.33;;;12.90;;
12625;SDS011;6378;42.684;23.372;2022-09-25T00:11:44;16.83;;;12.50;;
12625;SDS011;6378;42.684;23.372;2022-09-25T00:14:10;16.73;;;12.43;;
12625;SDS011;6378;42.684;23.372;2022-09-25T00:16:35;13.63;;;10.73;;
12625;SDS011;6378;42.684;23.372;2022-09-25T00:19:01;15.60;;;11.40;;
12625;SDS011;6378;42.684;23.372;2022-09-25T00:21:45;14.07;;;11.77;;
12625;SDS011;6378;42.684;23.372;2022-09-25T00:24:15;20.90;;;14.30;;
12625;SDS011;6378;42.684;23.372;2022-09-25T00:26:41;16.97;;;12.57;;
12625;SDS011;6378;42.684;23.372;2022-09-25T00:29:07;16.27;;;13.20;;
12625;SDS011;6378;42.684;23.372;2022-09-25T00:31:38;20.90;;;15.60;;
12625;SDS011;6378;42.684;23.372;2022-09-25T00:34:04;41.17;;;26.80;;
12625;SDS011;6378;42.684;23.372;2022-09-25T00:36:30;45.83;;;29.67;;
12625;SDS011;6378;42.684;23.372;2022-09-25T00:38:56;34.80;;;23.07;;
12625;SDS011;6378;42.684;23.372;2022-09-25T00:41:23;29.73;;;19.53;;
12625;SDS011;6378;42.684;23.372;2022-09-25T00:43:51;34.80;;;22.10;;
12625;SDS011;6378;42.684;23.372;2022-09-25T00:49:11;17.40;;;12.47;;
12625;SDS011;6378;42.684;23.372;2022-09-25T00:51:40;18.60;;;11.97;;
12625;SDS011;6378;42.684;23.372;2022-09-25T00:54:13;16.33;;;12.90;;
12625;SDS011;6378;42.684;23.372;2022-09-25T00:56:42;17.13;;;13.23;;
12625;SDS011;6378;42.684;23.372;2022-09-25T00:59:13;15.70;;;12.17;;
12625;SDS011;6378;42.684;23.372;2022-09-25T01:01:41;16.93;;;12.63;;
12625;SDS011;6378;42.684;23.372;2022-09-25T01:04:07;18.07;;;13.00;;
12625;SDS011;6378;42.684;23.372;2022-09-25T01:06:34;20.23;;;13.67;;
12625;SDS011;6378;42.684;23.372;2022-09-25T01:08:59;17.83;;;13.37;;
12625;SDS011;6378;42.684;23.372;2022-09-25T01:11:25;17.60;;;13.83;;
12625;SDS011;6378;42.684;23.372;2022-09-25T01:13:54;21.77;;;13.67;;
12625;SDS011;6378;42.684;23.372;2022-09-25T01:16:26;17.47;;;13.67;;
12625;SDS011;6378;42.684;23.372;2022-09-25T01:30:31;18.67;;;14.13;;
12625;SDS011;6378;42.684;23.372;2022-09-25T01:33:06;21.00;;;14.77;;
12625;SDS011;6378;42.684;23.372;2022-09-25T01:41:39;22.63;;;16.73;;
12625;SDS011;6378;42.684;23.372;2022-09-25T01:43:50;25.43;;;18.23;;
12625;SDS011;6378;42.684;23.372;2022-09-25T01:46:22;25.67;;;18.13;;
12625;SDS011;6378;42.684;23.372;2022-09-25T01:48:54;23.57;;;17.70;;
12625;SDS011;6378;42.684;23.372;2022-09-25T01:51:57;26.30;;;18.27;;
12625;SDS011;6378;42.684;23.372;2022-09-25T01:54:21;24.67;;;16.90;;
12625;SDS011;6378;42.684;23.372;2022-09-25T01:56:58;25.67;;;18.47;;
12625;SDS011;6378;42.684;23.372;2022-09-25T01:59:33;27.07;;;18.63;;
12625;SDS011;6378;42.684;23.372;2022-09-25T02:02:04;24.03;;;17.17;;
12625;SDS011;6378;42.684;23.372;2022-09-25T02:04:37;22.57;;;16.60;;
12625;SDS011;6378;42.684;23.372;2022-09-25T02:07:08;23.50;;;16.07;;
12625;SDS011;6378;42.684;23.372;2022-09-25T02:09:39;23.30;;;15.70;;
12625;SDS011;6378;42.684;23.372;2022-09-25T02:12:18;20.53;;;15.10;;
12625;SDS011;6378;42.684;23.372;2022-09-25T02:15:03;21.57;;;15.10;;
12625;SDS011;6378;42.684;23.372;2022-09-25T02:17:43;19.57;;;14.80;;
12625;SDS011;6378;42.684;23.372;2022-09-25T02:20:35;21.10;;;16.17;;
12625;SDS011;6378;42.684;23.372;2022-09-25T02:25:57;21.07;;;15.43;;
12625;SDS011;6378;42.684;23.372;2022-09-25T02:28:27;22.03;;;15.70;;
12625;SDS011;6378;42.684;23.372;2022-09-25T02:30:53;23.87;;;15.77;;
12625;SDS011;6378;42.684;23.372;2022-09-25T02:33:21;26.00;;;16.73;;
12625;SDS011;6378;42.684;23.372;2022-09-25T02:35:48;22.47;;;15.10;;
12625;SDS011;6378;42.684;23.372;2022-09-25T02:38:14;21.90;;;15.13;;
12625;SDS011;6378;42.684;23.372;2022-09-25T02:48:53;20.30;;;14.60;;
12625;SDS011;6378;42.684;23.372;2022-09-25T02:51:28;21.40;;;15.17;;
12625;SDS011;6378;42.684;23.372;2022-09-25T02:54:09;20.20;;;13.93;;
12625;SDS011;6378;42.684;23.372;2022-09-25T02:56:46;22.53;;;14.93;;
12625;SDS011;6378;42.684;23.372;2022-09-25T02:59:17;21.03;;;14.40;;
12625;SDS011;6378;42.684;23.372;2022-09-25T03:01:44;20.60;;;15.03;;
12625;SDS011;6378;42.684;23.372;2022-09-25T03:04:12;28.63;;;19.00;;
12625;SDS011;6378;42.684;23.372;2022-09-25T03:06:40;19.53;;;13.73;;
12625;SDS011;6378;42.684;23.372;2022-09-25T03:09:06;21.00;;;14.57;;
12625;SDS011;6378;42.684;23.372;2022-09-25T03:11:35;21.50;;;14.83;;
12625;SDS011;6378;42.684;23.372;2022-09-25T03:14:07;19.43;;;14.80;;
12625;SDS011;6378;42.684;23.372;2022-09-25T03:19:12;19.40;;;13.77;;
12625;SDS011;6378;42.684;23.372;2022-09-25T03:21:38;23.70;;;14.17;;
12625;SDS011;6378;42.684;23.372;2022-09-25T03:24:04;20.20;;;14.23;;
12625;SDS011;6378;42.684;23.372;2022-09-25T03:26:30;19.53;;;14.03;;
12625;SDS011;6378;42.684;23.372;2022-09-25T03:28:55;21.37;;;15.17;;
12625;SDS011;6378;42.684;23.372;2022-09-25T03:31:26;19.03;;;14.03;;
12625;SDS011;6378;42.684;23.372;2022-09-25T03:33:53;20.50;;;13.87;;
12625;SDS011;6378;42.684;23.372;2022-09-25T03:36:19;18.57;;;13.10;;
12625;SDS011;6378;42.684;23.372;2022-09-25T03:38:46;18.33;;;13.77;;
12625;SDS011;6378;42.684;23.372;2022-09-25T03:41:15;16.67;;;12.63;;
12625;SDS011;6378;42.684;23.372;2022-09-25T03:43:43;19.97;;;14.20;;
12625;SDS011;6378;42.684;23.372;2022-09-25T03:46:10;23.53;;;15.90;;
12625;SDS011;6378;42.684;23.372;2022-09-25T03:48:37;19.53;;;14.07;;
12625;SDS011;6378;42.684;23.372;2022-09-25T03:51:03;22.97;;;14.77;;
12625;SDS011;6378;42.684;23.372;2022-09-25T03:53:30;21.03;;;14.87;;
12625;SDS011;6378;42.684;23.372;2022-09-25T03:56:09;19.87;;;14.83;;
12625;SDS011;6378;42.684;23.372;2022-09-25T03:58:36;22.37;;;15.47;;
12625;SDS011;6378;42.684;23.372;2022-09-25T04:01:03;23.00;;;15.03;;
12625;SDS011;6378;42.684;23.372;2022-09-25T04:03:29;22.83;;;15.63;;
12625;SDS011;6378;42.684;23.372;2022-09-25T04:05:59;23.47;;;15.93;;
12625;SDS011;6378;42.684;23.372;2022-09-25T04:08:28;27.20;;;16.30;;
12625;SDS011;6378;42.684;23.372;2022-09-25T04:10:56;21.30;;;15.33;;
12625;SDS011;6378;42.684;23.372;2022-09-25T04:13:26;24.17;;;15.73;;
12625;SDS011;6378;42.684;23.372;2022-09-25T04:15:56;24.17;;;15.70;;
12625;SDS011;6378;42.684;23.372;2022-09-25T04:18:23;24.03;;;15.83;;
12625;SDS011;6378;42.684;23.372;2022-09-25T04:20:49;24.47;;;16.23;;
12625;SDS011;6378;42.684;23.372;2022-09-25T04:23:15;23.23;;;15.40;;
12625;SDS011;6378;42.684;23.372;2022-09-25T04:25:41;27.07;;;16.03;;
12625;SDS011;6378;42.684;23.372;2022-09-25T04:28:06;23.27;;;16.67;;
12625;SDS011;6378;42.684;23.372;2022-09-25T04:30:34;22.70;;;15.20;;
12625;SDS011;6378;42.684;23.372;2022-09-25T04:33:00;25.03;;;15.67;;
12625;SDS011;6378;42.684;23.372;2022-09-25T04:35:44;23.83;;;15.83;;
12625;SDS011;6378;42.684;23.372;2022-09-25T04:38:10;24.67;;;15.17;;
12625;SDS011;6378;42.684;23.372;2022-09-25T04:40:35;20.00;;;14.80;;
12625;SDS011;6378;42.684;23.372;2022-09-25T04:43:02;24.10;;;16.97;;
12625;SDS011;6378;42.684;23.372;2022-09-25T04:45:29;23.23;;;15.80;;
12625;SDS011;6378;42.684;23.372;2022-09-25T04:47:58;21.97;;;14.37;;
12625;SDS011;6378;42.684;23.372;2022-09-25T04:50:24;21.50;;;15.27;;
12625;SDS011;6378;42.684;23.372;2022-09-25T04:52:51;25.87;;;17.93;;
12625;SDS011;6378;42.684;23.372;2022-09-25T04:55:17;26.90;;;16.13;;
12625;SDS011;6378;42.684;23.372;2022-09-25T04:57:43;35.47;;;22.50;;
12625;SDS011;6378;42.684;23.372;2022-09-25T05:00:09;26.10;;;17.40;;
12625;SDS011;6378;42.684;23.372;2022-09-25T05:02:36;25.03;;;15.87;;
12625;SDS011;6378;42.684;23.372;2022-09-25T05:05:01;22.53;;;15.50;;
12625;SDS011;6378;42.684;23.372;2022-09-25T05:07:27;21.70;;;15.60;;
12625;SDS011;6378;42.684;23.372;2022-09-25T05:09:52;22.10;;;14.77;;
12625;SDS011;6378;42.684;23.372;2022-09-25T05:12:18;24.65;;;15.00;;
12625;SDS011;6378;42.684;23.372;2022-09-25T05:14:44;22.52;;;14.93;;
12625;SDS011;6378;42.684;23.372;2022-09-25T05:17:09;21.50;;;14.30;;
12625;SDS011;6378;42.684;23.372;2022-09-25T05:19:35;17.63;;;14.35;;
12625;SDS011;6378;42.684;23.372;2022-09-25T05:22:01;16.85;;;12.65;;
12625;SDS011;6378;42.684;23.372;2022-09-25T05:24:27;20.83;;;14.80;;
12625;SDS011;6378;42.684;23.372;2022-09-25T05:26:53;21.27;;;14.48;;
12625;SDS011;6378;42.684;23.372;2022-09-25T05:29:18;22.65;;;15.70;;
12625;SDS011;6378;42.684;23.372;2022-09-25T05:31:45;23.30;;;16.98;;
12625;SDS011;6378;42.684;23.372;2022-09-25T05:34:13;32.25;;;23.90;;
12625;SDS011;6378;42.684;23.372;2022-09-25T05:36:38;33.05;;;20.33;;
12625;SDS011;6378;42.684;23.372;2022-09-25T05:39:04;43.45;;;28.35;;
12625;SDS011;6378;42.684;23.372;2022-09-25T05:41:29;28.23;;;20.25;;
12625;SDS011;6378;42.684;23.372;2022-09-25T05:43:57;28.98;;;18.67;;
12625;SDS011;6378;42.684;23.372;2022-09-25T05:46:23;18.60;;;14.77;;
12625;SDS011;6378;42.684;23.372;2022-09-25T05:48:48;16.08;;;12.95;;
12625;SDS011;6378;42.684;23.372;2022-09-25T05:51:13;14.50;;;11.50;;
12625;SDS011;6378;42.684;23.372;2022-09-25T05:53:39;14.20;;;10.65;;
12625;SDS011;6378;42.684;23.372;2022-09-25T05:56:05;11.60;;;10.05;;
12625;SDS011;6378;42.684;23.372;2022-09-25T05:58:32;11.27;;;10.05;;
12625;SDS011;6378;42.684;23.372;2022-09-25T06:00:58;12.15;;;10.10;;
12625;SDS011;6378;42.684;23.372;2022-09-25T06:03:25;10.93;;;9.82;;
12625;SDS011;6378;42.684;23.372;2022-09-25T06:05:54;11.20;;;9.38;;
12625;SDS011;6378;42.684;23.372;2022-09-25T06:08:20;14.13;;;10.80;;
12625;SDS011;6378;42.684;23.372;2022-09-25T06:10:49;12.05;;;10.52;;
12625;SDS011;6378;42.684;23.372;2022-09-25T06:13:16;12.13;;;9.70;;
12625;SDS011;6378;42.684;23.372;2022-09-25T06:15:42;12.68;;;9.80;;
12625;SDS011;6378;42.684;23.372;2022-09-25T06:18:08;12.90;;;10.52;;
12625;SDS011;6378;42.684;23.372;2022-09-25T06:20:34;12.05;;;10.70;;
12625;SDS011;6378;42.684;23.372;2022-09-25T06:23:00;13.88;;;12.40;;
12625;SDS011;6378;42.684;23.372;2022-09-25T06:25:29;11.43;;;9.90;;
12625;SDS011;6378;42.684;23.372;2022-09-25T06:27:59;12.18;;;10.55;;
12625;SDS011;6378;42.684;23.372;2022-09-25T06:30:25;11.00;;;9.90;;
12625;SDS011;6378;42.684;23.372;2022-09-25T06:32:57;11.85;;;10.48;;
12625;SDS011;6378;42.684;23.372;2022-09-25T06:35:27;14.50;;;9.90;;
12625;SDS011;6378;42.684;23.372;2022-09-25T06:37:56;11.65;;;9.35;;
12625;SDS011;6378;42.684;23.372;2022-09-25T06:40:22;11.55;;;9.35;;
12625;SDS011;6378;42.684;23.372;2022-09-25T06:42:58;11.18;;;9.65;;
12625;SDS011;6378;42.684;23.372;2022-09-25T06:45:25;13.00;;;11.05;;
12625;SDS011;6378;42.684;23.372;2022-09-25T06:47:53;12.63;;;10.13;;
12625;SDS011;6378;42.684;23.372;2022-09-25T06:50:25;21.83;;;17.42;;
12625;SDS011;6378;42.684;23.372;2022-09-25T06:52:55;12.10;;;10.43;;
12625;SDS011;6378;42.684;23.372;2022-09-25T06:55:25;14.65;;;12.25;;
12625;SDS011;6378;42.684;23.372;2022-09-25T06:57:51;13.93;;;10.77;;
12625;SDS011;6378;42.684;23.372;2022-09-25T07:00:17;15.05;;;11.23;;
12625;SDS011;6378;42.684;23.372;2022-09-25T07:02:43;17.70;;;11.40;;
12625;SDS011;6378;42.684;23.372;2022-09-25T07:05:27;13.68;;;11.27;;
12625;SDS011;6378;42.684;23.372;2022-09-25T07:07:55;16.77;;;13.10;;
12625;SDS011;6378;42.684;23.372;2022-09-25T07:10:21;12.48;;;10.30;;
12625;SDS011;6378;42.684;23.372;2022-09-25T07:12:46;23.17;;;10.60;;
12625;SDS011;6378;42.684;23.372;2022-09-25T07:15:12;14.07;;;9.68;;
12625;SDS011;6378;42.684;23.372;2022-09-25T07:17:42;14.23;;;8.68;;
12625;SDS011;6378;42.684;23.372;2022-09-25T07:20:11;11.02;;;9.20;;
12625;SDS011;6378;42.684;23.372;2022-09-25T07:22:39;10.55;;;8.48;;
12625;SDS011;6378;42.684;23.372;2022-09-25T07:25:05;14.27;;;9.25;;
12625;SDS011;6378;42.684;23.372;2022-09-25T07:27:32;13.55;;;10.15;;
12625;SDS011;6378;42.684;23.372;2022-09-25T07:29:57;11.68;;;9.68;;
12625;SDS011;6378;42.684;23.372;2022-09-25T07:32:23;10.88;;;9.45;;
12625;SDS011;6378;42.684;23.372;2022-09-25T07:34:49;13.27;;;10.95;;
12625;SDS011;6378;42.684;23.372;2022-09-25T07:37:15;20.17;;;16.35;;
12625;SDS011;6378;42.684;23.372;2022-09-25T07:39:41;12.80;;;10.77;;
12625;SDS011;6378;42.684;23.372;2022-09-25T07:42:07;11.98;;;10.70;;
12625;SDS011;6378;42.684;23.372;2022-09-25T07:44:33;18.45;;;12.30;;
12625;SDS011;6378;42.684;23.372;2022-09-25T07:46:58;11.98;;;9.48;;
12625;SDS011;6378;42.684;23.372;2022-09-25T07:49:25;15.00;;;10.20;;
12625;SDS011;6378;42.684;23.372;2022-09-25T07:51:53;13.65;;;11.20;;
12625;SDS011;6378;42.684;23.372;2022-09-25T07:54:18;15.35;;;10.85;;
12625;SDS011;6378;42.684;23.372;2022-09-25T07:56:44;13.15;;;11.40;;
12625;SDS011;6378;42.684;23.372;2022-09-25T07:59:09;13.60;;;10.30;;
12625;SDS011;6378;42.684;23.372;2022-09-25T08:01:34;11.57;;;9.15;;
12625;SDS011;6378;42.684;23.372;2022-09-25T08:04:00;12.07;;;10.50;;
12625;SDS011;6378;42.684;23.372;2022-09-25T08:06:25;12.00;;;10.70;;
12625;SDS011;6378;42.684;23.372;2022-09-25T08:08:51;12.20;;;10.32;;
12625;SDS011;6378;42.684;23.372;2022-09-25T08:11:16;12.77;;;10.55;;
12625;SDS011;6378;42.684;23.372;2022-09-25T08:13:42;12.40;;;9.55;;
12625;SDS011;6378;42.684;23.372;2022-09-25T08:16:17;17.35;;;12.75;;
12625;SDS011;6378;42.684;23.372;2022-09-25T08:18:45;14.65;;;11.43;;
12625;SDS011;6378;42.684;23.372;2022-09-25T08:21:12;11.18;;;9.98;;
12625;SDS011;6378;42.684;23.372;2022-09-25T08:23:39;10.68;;;9.40;;
12625;SDS011;6378;42.684;23.372;2022-09-25T08:26:06;12.45;;;8.90;;
12625;SDS011;6378;42.684;23.372;2022-09-25T08:28:32;12.77;;;10.65;;
12625;SDS011;6378;42.684;23.372;2022-09-25T08:30:57;14.18;;;11.25;;
12625;SDS011;6378;42.684;23.372;2022-09-25T08:33:23;10.13;;;9.00;;
12625;SDS011;6378;42.684;23.372;2022-09-25T08:35:56;10.27;;;8.27;;
12625;SDS011;6378;42.684;23.372;2022-09-25T08:38:23;11.75;;;8.63;;
12625;SDS011;6378;42.684;23.372;2022-09-25T08:40:56;10.07;;;7.88;;
12625;SDS011;6378;42.684;23.372;2022-09-25T08:43:27;7.97;;;7.13;;
12625;SDS011;6378;42.684;23.372;2022-09-25T08:45:55;7.90;;;6.70;;
12625;SDS011;6378;42.684;23.372;2022-09-25T08:51:29;6.72;;;5.78;;
12625;SDS011;6378;42.684;23.372;2022-09-25T08:54:14;6.70;;;6.00;;
12625;SDS011;6378;42.684;23.372;2022-09-25T08:56:48;9.27;;;7.10;;
12625;SDS011;6378;42.684;23.372;2022-09-25T09:01:54;6.13;;;5.53;;
12625;SDS011;6378;42.684;23.372;2022-09-25T09:07:10;9.10;;;6.93;;
12625;SDS011;6378;42.684;23.372;2022-09-25T09:09:44;7.55;;;6.63;;
12625;SDS011;6378;42.684;23.372;2022-09-25T09:12:18;9.30;;;6.65;;
12625;SDS011;6378;42.684;23.372;2022-09-25T09:14:48;7.72;;;5.53;;
12625;SDS011;6378;42.684;23.372;2022-09-25T09:17:24;8.60;;;6.55;;
12625;SDS011;6378;42.684;23.372;2022-09-25T09:19:52;7.93;;;6.32;;
12625;SDS011;6378;42.684;23.372;2022-09-25T09:22:25;7.82;;;6.70;;
12625;SDS011;6378;42.684;23.372;2022-09-25T09:49:00;6.57;;;4.60;;
12625;SDS011;6378;42.684;23.372;2022-09-25T09:51:39;12.15;;;5.00;;
12625;SDS011;6378;42.684;23.372;2022-09-25T09:54:13;6.47;;;4.60;;
12625;SDS011;6378;42.684;23.372;2022-09-25T09:56:45;5.93;;;4.88;;
12625;SDS011;6378;42.684;23.372;2022-09-25T09:59:18;4.28;;;3.85;;
12625;SDS011;6378;42.684;23.372;2022-09-25T10:01:51;5.03;;;4.40;;
12625;SDS011;6378;42.684;23.372;2022-09-25T10:04:32;4.63;;;4.22;;
12625;SDS011;6378;42.684;23.372;2022-09-25T10:07:04;5.13;;;4.72;;
12625;SDS011;6378;42.684;23.372;2022-09-25T10:09:37;5.88;;;5.28;;
12625;SDS011;6378;42.684;23.372;2022-09-25T10:12:06;7.45;;;5.15;;
12625;SDS011;6378;42.684;23.372;2022-09-25T10:14:40;5.35;;;4.38;;
12625;SDS011;6378;42.684;23.372;2022-09-25T10:17:09;17.63;;;12.75;;
12625;SDS011;6378;42.684;23.372;2022-09-25T10:19:47;5.20;;;4.70;;
12625;SDS011;6378;42.684;23.372;2022-09-25T10:22:20;5.75;;;4.85;;
12625;SDS011;6378;42.684;23.372;2022-09-25T10:24:54;7.25;;;5.65;;
12625;SDS011;6378;42.684;23.372;2022-09-25T10:32:29;7.18;;;4.47;;
12625;SDS011;6378;42.684;23.372;2022-09-25T10:34:59;5.38;;;4.68;;
12625;SDS011;6378;42.684;23.372;2022-09-25T10:37:26;4.60;;;4.20;;
12625;SDS011;6378;42.684;23.372;2022-09-25T10:40:05;4.22;;;3.83;;
12625;SDS011;6378;42.684;23.372;2022-09-25T10:42:41;5.05;;;4.45;;
12625;SDS011;6378;42.684;23.372;2022-09-25T10:51:14;4.43;;;4.03;;
12625;SDS011;6378;42.684;23.372;2022-09-25T10:53:46;4.55;;;4.15;;
12625;SDS011;6378;42.684;23.372;2022-09-25T10:56:22;5.45;;;4.43;;
12625;SDS011;6378;42.684;23.372;2022-09-25T10:59:02;5.43;;;4.40;;
12625;SDS011;6378;42.684;23.372;2022-09-25T11:01:43;5.80;;;5.13;;
12625;SDS011;6378;42.684;23.372;2022-09-25T11:04:20;5.10;;;4.10;;
12625;SDS011;6378;42.684;23.372;2022-09-25T11:06:52;4.82;;;3.95;;
12625;SDS011;6378;42.684;23.372;2022-09-25T11:09:22;5.65;;;4.45;;
12625;SDS011;6378;42.684;23.372;2022-09-25T11:11:50;4.20;;;3.85;;
12625;SDS011;6378;42.684;23.372;2022-09-25T11:14:28;4.43;;;4.03;;
12625;SDS011;6378;42.684;23.372;2022-09-25T11:17:00;4.25;;;3.78;;
12625;SDS011;6378;42.684;23.372;2022-09-25T11:19:30;4.43;;;3.88;;
12625;SDS011;6378;42.684;23.372;2022-09-25T11:24:51;5.00;;;4.10;;
12625;SDS011;6378;42.684;23.372;2022-09-25T11:27:35;4.57;;;3.85;;
12625;SDS011;6378;42.684;23.372;2022-09-25T11:30:17;4.68;;;4.15;;
12625;SDS011;6378;42.684;23.372;2022-09-25T11:32:55;4.35;;;3.67;;
12625;SDS011;6378;42.684;23.372;2022-09-25T11:41:26;4.67;;;4.07;;
12625;SDS011;6378;42.684;23.372;2022-09-25T11:49:37;4.10;;;3.70;;
12625;SDS011;6378;42.684;23.372;2022-09-25T12:23:21;3.80;;;3.42;;
12625;SDS011;6378;42.684;23.372;2022-09-25T12:26:05;6.47;;;3.60;;
12625;SDS011;6378;42.684;23.372;2022-09-25T12:36:21;3.33;;;3.03;;
12625;SDS011;6378;42.684;23.372;2022-09-25T12:41:49;3.50;;;3.20;;
12625;SDS011;6378;42.684;23.372;2022-09-25T12:46:54;2.90;;;2.70;;
12625;SDS011;6378;42.684;23.372;2022-09-25T12:51:57;2.88;;;2.67;;
12625;SDS011;6378;42.684;23.372;2022-09-25T12:57:17;3.33;;;2.90;;
12625;SDS011;6378;42.684;23.372;2022-09-25T12:59:51;4.53;;;3.30;;
12625;SDS011;6378;42.684;23.372;2022-09-25T13:07:57;3.60;;;3.30;;
12625;SDS011;6378;42.684;23.372;2022-09-25T13:10:37;3.42;;;3.00;;
12625;SDS011;6378;42.684;23.372;2022-09-25T13:13:10;4.28;;;2.78;;
12625;SDS011;6378;42.684;23.372;2022-09-25T13:15:43;3.33;;;3.03;;
12625;SDS011;6378;42.684;23.372;2022-09-25T13:18:15;3.95;;;3.20;;
12625;SDS011;6378;42.684;23.372;2022-09-25T13:25:46;3.47;;;3.15;;
12625;SDS011;6378;42.684;23.372;2022-09-25T13:28:23;3.88;;;3.28;;
12625;SDS011;6378;42.684;23.372;2022-09-25T13:31:01;4.57;;;3.10;;
12625;SDS011;6378;42.684;23.372;2022-09-25T13:33:33;3.80;;;3.38;;
12625;SDS011;6378;42.684;23.372;2022-09-25T13:36:08;4.32;;;3.67;;
12625;SDS011;6378;42.684;23.372;2022-09-25T13:38:48;3.45;;;3.22;;
12625;SDS011;6378;42.684;23.372;2022-09-25T13:41:34;4.57;;;3.67;;
12625;SDS011;6378;42.684;23.372;2022-09-25T13:49:49;4.45;;;4.05;;
12625;SDS011;6378;42.684;23.372;2022-09-25T13:55:38;4.38;;;3.42;;
12625;SDS011;6378;42.684;23.372;2022-09-25T13:58:18;4.40;;;2.95;;
12625;SDS011;6378;42.684;23.372;2022-09-25T14:05:56;3.78;;;3.13;;
12625;SDS011;6378;42.684;23.372;2022-09-25T14:08:25;3.97;;;2.95;;
12625;SDS011;6378;42.684;23.372;2022-09-25T14:10:54;4.03;;;3.63;;
12625;SDS011;6378;42.684;23.372;2022-09-25T14:13:21;4.45;;;3.95;;
12625;SDS011;6378;42.684;23.372;2022-09-25T14:15:49;3.63;;;3.28;;
12625;SDS011;6378;42.684;23.372;2022-09-25T14:18:23;3.72;;;3.42;;
12625;SDS011;6378;42.684;23.372;2022-09-25T14:20:57;4.00;;;3.00;;
12625;SDS011;6378;42.684;23.372;2022-09-25T14:23:25;3.63;;;3.33;;
12625;SDS011;6378;42.684;23.372;2022-09-25T14:26:03;4.03;;;3.20;;
12625;SDS011;6378;42.684;23.372;2022-09-25T14:28:44;4.50;;;3.88;;
12625;SDS011;6378;42.684;23.372;2022-09-25T14:40:18;4.25;;;3.30;;
12625;SDS011;6378;42.684;23.372;2022-09-25T14:47:43;4.10;;;3.70;;
12625;SDS011;6378;42.684;23.372;2022-09-25T14:50:20;3.75;;;3.45;;
12625;SDS011;6378;42.684;23.372;2022-09-25T14:53:00;5.22;;;3.40;;
12625;SDS011;6378;42.684;23.372;2022-09-25T14:55:32;5.03;;;3.83;;
12625;SDS011;6378;42.684;23.372;2022-09-25T14:58:01;4.88;;;3.60;;
12625;SDS011;6378;42.684;23.372;2022-09-25T15:00:27;3.50;;;3.20;;
12625;SDS011;6378;42.684;23.372;2022-09-25T15:02:54;3.72;;;3.30;;
12625;SDS011;6378;42.684;23.372;2022-09-25T15:07:48;4.38;;;3.63;;
12625;SDS011;6378;42.684;23.372;2022-09-25T15:10:33;5.80;;;4.10;;
12625;SDS011;6378;42.684;23.372;2022-09-25T15:13:12;4.22;;;3.83;;
12625;SDS011;6378;42.684;23.372;2022-09-25T15:15:41;4.15;;;3.72;;
12625;SDS011;6378;42.684;23.372;2022-09-25T15:18:30;5.63;;;4.65;;
12625;SDS011;6378;42.684;23.372;2022-09-25T15:20:56;4.28;;;3.60;;
12625;SDS011;6378;42.684;23.372;2022-09-25T15:23:22;4.40;;;4.00;;
12625;SDS011;6378;42.684;23.372;2022-09-25T15:25:51;4.50;;;3.78;;
12625;SDS011;6378;42.684;23.372;2022-09-25T15:28:20;4.50;;;3.17;;
12625;SDS011;6378;42.684;23.372;2022-09-25T15:30:59;6.80;;;3.53;;
12625;SDS011;6378;42.684;23.372;2022-09-25T15:33:28;5.55;;;3.40;;
12625;SDS011;6378;42.684;23.372;2022-09-25T15:36:00;3.25;;;2.92;;
12625;SDS011;6378;42.684;23.372;2022-09-25T15:38:36;3.67;;;3.00;;
12625;SDS011;6378;42.684;23.372;2022-09-25T15:41:06;4.20;;;3.25;;
12625;SDS011;6378;42.684;23.372;2022-09-25T15:43:33;4.30;;;3.10;;
12625;SDS011;6378;42.684;23.372;2022-09-25T15:48:41;4.22;;;3.53;;
12625;SDS011;6378;42.684;23.372;2022-09-25T15:51:18;7.47;;;4.30;;
12625;SDS011;6378;42.684;23.372;2022-09-25T15:53:54;4.28;;;3.65;;
12625;SDS011;6378;42.684;23.372;2022-09-25T15:56:24;5.40;;;3.67;;
12625;SDS011;6378;42.684;23.372;2022-09-25T15:58:56;4.25;;;3.53;;
12625;SDS011;6378;42.684;23.372;2022-09-25T16:01:26;3.40;;;3.10;;
12625;SDS011;6378;42.684;23.372;2022-09-25T16:04:14;3.50;;;3.20;;
12625;SDS011;6378;42.684;23.372;2022-09-25T16:07:31;4.05;;;3.40;;
12625;SDS011;6378;42.684;23.372;2022-09-25T16:09:59;4.72;;;3.53;;
12625;SDS011;6378;42.684;23.372;2022-09-25T16:12:30;6.05;;;4.93;;
12625;SDS011;6378;42.684;23.372;2022-09-25T16:15:02;5.20;;;4.22;;
12625;SDS011;6378;42.684;23.372;2022-09-25T16:17:51;8.07;;;5.30;;
12625;SDS011;6378;42.684;23.372;2022-09-25T16:20:34;4.55;;;4.15;;
12625;SDS011;6378;42.684;23.372;2022-09-25T16:23:02;5.88;;;4.97;;
12625;SDS011;6378;42.684;23.372;2022-09-25T16:25:30;5.53;;;4.78;;
12625;SDS011;6378;42.684;23.372;2022-09-25T16:28:05;7.88;;;6.47;;
12625;SDS011;6378;42.684;23.372;2022-09-25T16:30:47;6.40;;;5.65;;
12625;SDS011;6378;42.684;23.372;2022-09-25T16:33:21;8.60;;;7.28;;
12625;SDS011;6378;42.684;23.372;2022-09-25T16:35:52;5.30;;;4.80;;
12625;SDS011;6378;42.684;23.372;2022-09-25T16:41:31;5.20;;;3.85;;
12625;SDS011;6378;42.684;23.372;2022-09-25T16:44:02;10.55;;;6.78;;
12625;SDS011;6378;42.684;23.372;2022-09-25T16:46:38;17.90;;;9.32;;
12625;SDS011;6378;42.684;23.372;2022-09-25T16:49:05;7.75;;;4.60;;
12625;SDS011;6378;42.684;23.372;2022-09-25T16:51:31;7.80;;;5.32;;
12625;SDS011;6378;42.684;23.372;2022-09-25T16:53:57;6.20;;;5.20;;
12625;SDS011;6378;42.684;23.372;2022-09-25T16:56:27;5.00;;;3.80;;
12625;SDS011;6378;42.684;23.372;2022-09-25T16:58:54;9.82;;;6.30;;
12625;SDS011;6378;42.684;23.372;2022-09-25T17:01:21;7.30;;;4.63;;
12625;SDS011;6378;42.684;23.372;2022-09-25T17:03:48;5.30;;;3.47;;
12625;SDS011;6378;42.684;23.372;2022-09-25T17:06:17;6.03;;;3.40;;
12625;SDS011;6378;42.684;23.372;2022-09-25T17:08:44;4.40;;;3.47;;
12625;SDS011;6378;42.684;23.372;2022-09-25T17:11:11;4.25;;;3.85;;
12625;SDS011;6378;42.684;23.372;2022-09-25T17:13:37;4.60;;;3.92;;
12625;SDS011;6378;42.684;23.372;2022-09-25T17:16:03;4.50;;;3.97;;
12625;SDS011;6378;42.684;23.372;2022-09-25T17:18:29;8.32;;;5.30;;
12625;SDS011;6378;42.684;23.372;2022-09-25T17:20:55;9.55;;;6.88;;
12625;SDS011;6378;42.684;23.372;2022-09-25T17:23:21;4.28;;;3.83;;
12625;SDS011;6378;42.684;23.372;2022-09-25T17:25:49;4.68;;;3.72;;
12625;SDS011;6378;42.684;23.372;2022-09-25T17:28:18;6.10;;;5.43;;
12625;SDS011;6378;42.684;23.372;2022-09-25T17:30:44;5.82;;;4.50;;
12625;SDS011;6378;42.684;23.372;2022-09-25T17:33:13;8.75;;;6.88;;
12625;SDS011;6378;42.684;23.372;2022-09-25T17:38:23;8.07;;;5.85;;
12625;SDS011;6378;42.684;23.372;2022-09-25T17:40:51;9.43;;;7.05;;
12625;SDS011;6378;42.684;23.372;2022-09-25T17:43:17;11.60;;;7.88;;
12625;SDS011;6378;42.684;23.372;2022-09-25T17:48:09;12.60;;;7.47;;
12625;SDS011;6378;42.684;23.372;2022-09-25T17:50:36;14.30;;;7.93;;
12625;SDS011;6378;42.684;23.372;2022-09-25T17:53:03;9.80;;;6.30;;
12625;SDS011;6378;42.684;23.372;2022-09-25T17:55:37;13.98;;;8.63;;
12625;SDS011;6378;42.684;23.372;2022-09-25T17:58:02;12.63;;;7.50;;
12625;SDS011;6378;42.684;23.372;2022-09-25T18:00:28;10.57;;;6.68;;
12625;SDS011;6378;42.684;23.372;2022-09-25T18:02:53;17.90;;;9.27;;
12625;SDS011;6378;42.684;23.372;2022-09-25T18:05:19;15.80;;;10.85;;